Impacts METAR Board
IDs:

KPDX - Portland Intl Arpt, OR, US

Updated at: 2000 UTC 08 Feb 2023
Potential Impact None Slight Moderate High
Time 08/08Z 08/09Z 08/10Z 08/11Z 08/12Z 08/13Z 08/14Z 08/15Z 08/16Z 08/17Z 08/18Z 08/19Z 08/20Z
Temp43 42 43 43 40 41 40 38 38 41 45 47 49
Dewpt37 36 37 36 36 37 36 36 35 37 39 40 40
Altim30.44 30.45 30.46 30.47 30.48 30.50 30.50 30.51 30.52 30.54 30.54 30.54 30.54
VIS10 10 10 10 10 10 10 10 10 10 10 10 10
CIG-- 55 50 -- -- 65 250 250 -- -- 140 -- 110
CoverFEWBKNOVCFEWFEWOVCBKNBKNSCTSCTBKNSCTBKN
FltCatVFRVFRVFRVFRVFRVFRVFRVFRVFRVFRVFRVFRVFR
WX-----RA--------------------
WDir0025029090034000801109060
WSpd0 0 8 5 7 0 3 0 0 3 8 8 4
WGst-- -- -- -- -- -- -- -- -- -- -- -- --
Raw hourly METARs
KPDX 080753Z 00000KT 10SM FEW060 06/03 A3044 RMK AO2 SLP305 T00610028 401060050
KPDX 080853Z 00000KT 10SM BKN055 06/02 A3045 RMK AO2 SLP309 T00560022 51015
KPDX 080953Z 25008KT 10SM -RA FEW044 BKN050 OVC080 06/03 A3046 RMK AO2 RAB52 SLP313 P0000 T00610028
KPDX 081053Z 29005KT 10SM FEW050 FEW080 06/02 A3047 RMK AO2 RAE09 SLP316 P0000 T00610022
KPDX 081153Z 09007KT 10SM FEW050 FEW080 04/02 A3048 RMK AO2 SLP319 60000 70007 T00440022 10072 20044 51010
KPDX 081253Z 00000KT 10SM FEW050 OVC065 05/03 A3050 RMK AO2 SLP326 T00500028
KPDX 081353Z 34003KT 10SM FEW017 SCT060 BKN250 04/02 A3050 RMK AO2 SLP328 T00440022
KPDX 081453Z 00000KT 10SM FEW020 FEW060 BKN250 03/02 A3051 RMK AO2 SLP330 T00330022 51011
KPDX 081553Z 00000KT 10SM FEW020 FEW060 SCT250 03/02 A3052 RMK AO2 SLP333 T00330017
KPDX 081653Z 08003KT 10SM FEW020 SCT060 05/03 A3054 RMK AO2 SLP339 T00500028
KPDX 081753Z 11008KT 10SM FEW010 FEW060 BKN140 07/04 A3054 RMK AO2 SLP340 T00720039 10072 20028 51009
KPDX 081853Z 09008KT 10SM FEW015 SCT130 SCT220 08/04 A3054 RMK AO2 SLP341 T00830044
KPDX 081953Z 06004KT 10SM FEW019 BKN110 09/04 A3054 RMK AO2 SLP340 T00940044



Page loaded:  20:11 UTC  |   12:11 PM Pacific  |   01:11 PM Mountain  |   02:11 PM Central  |   03:11 PM Eastern

 

ADVISORIES

FORECASTS

FORECASTS

OBSERVATIONS

USER TOOLS

ABOUT US